EZY1988 EGGP-LEIB
Flight info
| Callsign | EZY1988 |
|---|---|
| Flight time | 2h 21m |
| Altitude | 35000 |
| Route | NANTI L8 STAFA P18 TELBA L151 KIDLI UN859 SITET DCT ETRAT DCT DVL DCT LGL DCT SORAP DCT BENAR DCT VANAD DCT AMB UN859 SOPIL DCT BALAN DCT EVPOK DCT NARAK DCT GAI DCT LOMRA DCT ROCAN/N0461F310 DCT PUMAL N859 BCN Z174 CORDA |
| Aircraft | A320/M-SDE3FGHIRWY/LB1 |
Departure
| Time | 2026-05-05 18:57 |
|---|---|
| Airport | Liverpool John Lennon Airport (EGGP) |
Arrival
| Time | 2026-05-05 21:18 |
|---|---|
| Airport | Ibiza Airport (LEIB) |
| Time | Latitude | Longitude | Altitude | Speed | Heading |
|---|---|---|---|---|---|
| 2026-05-05 18:34 | 53.33665 | -2.85513 | 86 ft | 0 kts | 356° |
| 2026-05-05 18:47 | 53.33662 | -2.85513 | 85 ft | 2 kts | 356° |
| 2026-05-05 18:47 | 53.33638 | -2.85511 | 86 ft | 2 kts | 356° |
| 2026-05-05 18:48 | 53.33616 | -2.85510 | 89 ft | 4 kts | 2° |
| 2026-05-05 18:48 | 53.33589 | -2.85512 | 85 ft | 3 kts | 357° |
| 2026-05-05 18:48 | 53.33584 | -2.85511 | 85 ft | 0 kts | 356° |
| 2026-05-05 18:52 | 53.33598 | -2.85515 | 90 ft | 8 kts | 348° |
| 2026-05-05 18:52 | 53.33591 | -2.85544 | 86 ft | 6 kts | 162° |
| 2026-05-05 18:52 | 53.33555 | -2.85521 | 89 ft | 5 kts | 158° |
| 2026-05-05 18:52 | 53.33510 | -2.85442 | 85 ft | 18 kts | 97° |
| 2026-05-05 18:53 | 53.33519 | -2.85226 | 84 ft | 19 kts | 85° |
| 2026-05-05 18:53 | 53.33528 | -2.85016 | 87 ft | 17 kts | 86° |
| 2026-05-05 18:53 | 53.33536 | -2.84827 | 84 ft | 16 kts | 86° |
| 2026-05-05 18:53 | 53.33544 | -2.84628 | 80 ft | 17 kts | 86° |
| 2026-05-05 18:54 | 53.33553 | -2.84431 | 77 ft | 17 kts | 85° |
| 2026-05-05 18:54 | 53.33564 | -2.84236 | 78 ft | 20 kts | 85° |
| 2026-05-05 18:54 | 53.33579 | -2.83941 | 76 ft | 27 kts | 86° |
| 2026-05-05 18:54 | 53.33590 | -2.83632 | 83 ft | 25 kts | 86° |
| 2026-05-05 18:55 | 53.33591 | -2.83377 | 89 ft | 19 kts | 111° |
| 2026-05-05 18:55 | 53.33533 | -2.83301 | 88 ft | 0 kts | 170° |
| 2026-05-05 18:55 | 53.33531 | -2.83301 | 87 ft | 1 kts | 170° |
| 2026-05-05 18:56 | 53.33512 | -2.83296 | 87 ft | 7 kts | 171° |
| 2026-05-05 18:56 | 53.33447 | -2.83323 | 85 ft | 13 kts | 234° |
| 2026-05-05 18:56 | 53.33429 | -2.83558 | 72 ft | 43 kts | 266° |
| 2026-05-05 18:56 | 53.33386 | -2.84527 | 73 ft | 121 kts | 265° |
| 2026-05-05 18:57 | 53.33318 | -2.86230 | 322 ft | 157 kts | 269° |
| 2026-05-05 18:57 | 53.33279 | -2.88064 | 1155 ft | 163 kts | 275° |
| 2026-05-05 18:57 | 53.33345 | -2.90143 | 1549 ft | 193 kts | 276° |
| 2026-05-05 18:57 | 53.33060 | -2.92412 | 2251 ft | 208 kts | 245° |
| 2026-05-05 18:58 | 53.32099 | -2.94256 | 2763 ft | 215 kts | 217° |
| 2026-05-05 18:58 | 53.30721 | -2.95252 | 3260 ft | 220 kts | 189° |
| 2026-05-05 18:58 | 53.29187 | -2.95120 | 3686 ft | 227 kts | 160° |
| 2026-05-05 18:58 | 53.27824 | -2.93669 | 4016 ft | 243 kts | 129° |
| 2026-05-05 18:59 | 53.27231 | -2.92043 | 4237 ft | 253 kts | 105° |
| 2026-05-05 18:59 | 53.26854 | -2.89121 | 4909 ft | 260 kts | 100° |
| 2026-05-05 18:59 | 53.26360 | -2.86205 | 5784 ft | 263 kts | 109° |
| 2026-05-05 18:59 | 53.25622 | -2.83402 | 6619 ft | 265 kts | 117° |
| 2026-05-05 19:00 | 53.24257 | -2.79940 | 7523 ft | 275 kts | 126° |
| 2026-05-05 19:00 | 53.23469 | -2.78205 | 7979 ft | 280 kts | 126° |
| 2026-05-05 19:00 | 53.21884 | -2.74715 | 8832 ft | 291 kts | 126° |
| 2026-05-05 19:00 | 53.21054 | -2.72879 | 9333 ft | 294 kts | 126° |
| 2026-05-05 19:01 | 53.19813 | -2.70127 | 10038 ft | 300 kts | 127° |
| 2026-05-05 19:01 | 53.18524 | -2.67268 | 10380 ft | 320 kts | 127° |
| 2026-05-05 19:01 | 53.17139 | -2.64201 | 10553 ft | 343 kts | 127° |
| 2026-05-05 19:01 | 53.15659 | -2.60924 | 10700 ft | 364 kts | 127° |
| 2026-05-05 19:02 | 53.14038 | -2.57601 | 11124 ft | 374 kts | 134° |
| 2026-05-05 19:02 | 53.12082 | -2.54723 | 11761 ft | 377 kts | 144° |
| 2026-05-05 19:02 | 53.09931 | -2.52180 | 12423 ft | 381 kts | 145° |
| 2026-05-05 19:02 | 53.07758 | -2.49622 | 13081 ft | 384 kts | 145° |
| 2026-05-05 19:03 | 53.05569 | -2.47046 | 13732 ft | 387 kts | 145° |
| 2026-05-05 19:03 | 53.03358 | -2.44446 | 14301 ft | 391 kts | 146° |
| 2026-05-05 19:03 | 53.01134 | -2.41831 | 14860 ft | 394 kts | 146° |
| 2026-05-05 19:03 | 52.98891 | -2.39198 | 15430 ft | 396 kts | 146° |
| 2026-05-05 19:04 | 52.96657 | -2.36582 | 15971 ft | 399 kts | 146° |
| 2026-05-05 19:04 | 52.94381 | -2.33924 | 16522 ft | 401 kts | 146° |
| 2026-05-05 19:04 | 52.92058 | -2.31211 | 17059 ft | 404 kts | 146° |
| 2026-05-05 19:04 | 52.89703 | -2.28765 | 17566 ft | 405 kts | 155° |
| 2026-05-05 19:05 | 52.87078 | -2.27062 | 18079 ft | 406 kts | 166° |
| 2026-05-05 19:05 | 52.84303 | -2.26223 | 18553 ft | 406 kts | 178° |
| 2026-05-05 19:05 | 52.81486 | -2.26268 | 18996 ft | 405 kts | 188° |
| 2026-05-05 19:05 | 52.78720 | -2.27140 | 19442 ft | 405 kts | 195° |
| 2026-05-05 19:06 | 52.75966 | -2.28205 | 19895 ft | 407 kts | 195° |
| 2026-05-05 19:06 | 52.73200 | -2.29272 | 20331 ft | 409 kts | 195° |
| 2026-05-05 19:06 | 52.70385 | -2.29994 | 20773 ft | 413 kts | 185° |
| 2026-05-05 19:06 | 52.67501 | -2.29852 | 21205 ft | 418 kts | 174° |
| 2026-05-05 19:07 | 52.64654 | -2.28788 | 21626 ft | 423 kts | 163° |
| 2026-05-05 19:07 | 52.61950 | -2.26838 | 22045 ft | 428 kts | 153° |
| 2026-05-05 19:07 | 52.59435 | -2.24184 | 22457 ft | 431 kts | 148° |
| 2026-05-05 19:07 | 52.56936 | -2.21439 | 22859 ft | 433 kts | 148° |
| 2026-05-05 19:08 | 52.54424 | -2.18693 | 23242 ft | 435 kts | 148° |
| 2026-05-05 19:08 | 52.51895 | -2.15939 | 23613 ft | 437 kts | 149° |
| 2026-05-05 19:08 | 52.49356 | -2.13176 | 23925 ft | 439 kts | 148° |
| 2026-05-05 19:08 | 52.46802 | -2.10405 | 24255 ft | 441 kts | 149° |
| 2026-05-05 19:09 | 52.44238 | -2.07627 | 24575 ft | 442 kts | 148° |
| 2026-05-05 19:09 | 52.41666 | -2.04836 | 24888 ft | 444 kts | 148° |
| 2026-05-05 19:09 | 52.39087 | -2.02039 | 25199 ft | 446 kts | 148° |
| 2026-05-05 19:09 | 52.36494 | -1.99233 | 25501 ft | 447 kts | 148° |
| 2026-05-05 19:10 | 52.33894 | -1.96423 | 25810 ft | 448 kts | 149° |
| 2026-05-05 19:10 | 52.31284 | -1.93605 | 26117 ft | 449 kts | 149° |
| 2026-05-05 19:10 | 52.28678 | -1.90798 | 26415 ft | 450 kts | 149° |
| 2026-05-05 19:10 | 52.26056 | -1.87978 | 26693 ft | 452 kts | 149° |
| 2026-05-05 19:11 | 52.23420 | -1.85147 | 26982 ft | 453 kts | 149° |
| 2026-05-05 19:11 | 52.20782 | -1.82320 | 27259 ft | 454 kts | 149° |
| 2026-05-05 19:11 | 52.18136 | -1.79490 | 27529 ft | 455 kts | 149° |
| 2026-05-05 19:11 | 52.15484 | -1.76665 | 27804 ft | 456 kts | 150° |
| 2026-05-05 19:12 | 52.12780 | -1.73958 | 28103 ft | 456 kts | 152° |
| 2026-05-05 19:12 | 52.10031 | -1.71422 | 28500 ft | 454 kts | 154° |
| 2026-05-05 19:12 | 52.07260 | -1.68993 | 28903 ft | 451 kts | 154° |
| 2026-05-05 19:12 | 52.04483 | -1.66604 | 29298 ft | 450 kts | 155° |
| 2026-05-05 19:13 | 52.01721 | -1.64220 | 29680 ft | 448 kts | 154° |
| 2026-05-05 19:13 | 51.98977 | -1.61818 | 30077 ft | 447 kts | 154° |
| 2026-05-05 19:13 | 51.96259 | -1.59401 | 30390 ft | 446 kts | 154° |
| 2026-05-05 19:13 | 51.93550 | -1.56973 | 30677 ft | 445 kts | 153° |
| 2026-05-05 19:14 | 51.90838 | -1.54533 | 30956 ft | 445 kts | 153° |
| 2026-05-05 19:14 | 51.88131 | -1.52098 | 31234 ft | 445 kts | 153° |
| 2026-05-05 19:14 | 51.85424 | -1.49669 | 31508 ft | 445 kts | 153° |
| 2026-05-05 19:14 | 51.82748 | -1.47279 | 31779 ft | 445 kts | 153° |
| 2026-05-05 19:15 | 51.80037 | -1.44869 | 32062 ft | 444 kts | 154° |
| 2026-05-05 19:15 | 51.77339 | -1.42476 | 32470 ft | 440 kts | 153° |
| 2026-05-05 19:15 | 51.74661 | -1.40101 | 32841 ft | 438 kts | 153° |
| 2026-05-05 19:15 | 51.71994 | -1.37739 | 33171 ft | 436 kts | 153° |
| 2026-05-05 19:16 | 51.69335 | -1.35389 | 33476 ft | 435 kts | 153° |
| 2026-05-05 19:16 | 51.66683 | -1.33048 | 33785 ft | 435 kts | 153° |
| 2026-05-05 19:16 | 51.64032 | -1.30710 | 34060 ft | 434 kts | 153° |
| 2026-05-05 19:16 | 51.61388 | -1.28379 | 34290 ft | 434 kts | 153° |
| 2026-05-05 19:17 | 51.58734 | -1.26044 | 34500 ft | 434 kts | 153° |
| 2026-05-05 19:17 | 51.56071 | -1.23709 | 34677 ft | 435 kts | 153° |
| 2026-05-05 19:17 | 51.53413 | -1.21379 | 34865 ft | 436 kts | 153° |
| 2026-05-05 19:17 | 51.50746 | -1.19041 | 34957 ft | 438 kts | 153° |
| 2026-05-05 19:18 | 51.45376 | -1.14340 | 34964 ft | 440 kts | 153° |
| 2026-05-05 19:18 | 51.39997 | -1.09653 | 34961 ft | 440 kts | 153° |
| 2026-05-05 19:19 | 51.34617 | -1.04975 | 34955 ft | 440 kts | 153° |
| 2026-05-05 19:19 | 51.29227 | -1.00296 | 34948 ft | 442 kts | 153° |
| 2026-05-05 19:20 | 51.23821 | -0.95618 | 34946 ft | 442 kts | 153° |
| 2026-05-05 19:20 | 51.18414 | -0.90950 | 34945 ft | 441 kts | 153° |
| 2026-05-05 19:21 | 51.13043 | -0.86327 | 34949 ft | 441 kts | 153° |
| 2026-05-05 19:21 | 51.07639 | -0.81709 | 34949 ft | 441 kts | 153° |
| 2026-05-05 19:22 | 51.02238 | -0.77095 | 34945 ft | 441 kts | 153° |
| 2026-05-05 19:22 | 50.96840 | -0.72489 | 34941 ft | 440 kts | 153° |
| 2026-05-05 19:23 | 50.91442 | -0.67899 | 34942 ft | 440 kts | 153° |
| 2026-05-05 19:23 | 50.86041 | -0.63307 | 34938 ft | 440 kts | 152° |
| 2026-05-05 19:24 | 50.80639 | -0.58722 | 34939 ft | 440 kts | 153° |
| 2026-05-05 19:24 | 50.75228 | -0.54160 | 34940 ft | 441 kts | 153° |
| 2026-05-05 19:25 | 50.69819 | -0.49605 | 34941 ft | 441 kts | 153° |
| 2026-05-05 19:25 | 50.64399 | -0.45045 | 34940 ft | 441 kts | 152° |
| 2026-05-05 19:26 | 50.58995 | -0.40509 | 34938 ft | 440 kts | 152° |
| 2026-05-05 19:26 | 50.53616 | -0.36015 | 34940 ft | 440 kts | 152° |
| 2026-05-05 19:27 | 50.48207 | -0.31520 | 34937 ft | 440 kts | 152° |
| 2026-05-05 19:27 | 50.42796 | -0.27020 | 34936 ft | 440 kts | 152° |
| 2026-05-05 19:28 | 50.37381 | -0.22523 | 34932 ft | 440 kts | 152° |
| 2026-05-05 19:28 | 50.31963 | -0.18052 | 34933 ft | 440 kts | 152° |
| 2026-05-05 19:29 | 50.26512 | -0.13718 | 34940 ft | 440 kts | 160° |
| 2026-05-05 19:29 | 50.20664 | -0.10915 | 34938 ft | 439 kts | 163° |
| 2026-05-05 19:30 | 50.14797 | -0.08196 | 34938 ft | 440 kts | 163° |
| 2026-05-05 19:30 | 50.08940 | -0.05484 | 34940 ft | 440 kts | 163° |
| 2026-05-05 19:31 | 50.03074 | -0.02770 | 34940 ft | 439 kts | 163° |
| 2026-05-05 19:31 | 49.97210 | -0.00054 | 34937 ft | 439 kts | 163° |
| 2026-05-05 19:32 | 49.91364 | 0.02643 | 34939 ft | 437 kts | 162° |
| 2026-05-05 19:32 | 49.85528 | 0.05315 | 34934 ft | 437 kts | 162° |
| 2026-05-05 19:33 | 49.79700 | 0.07972 | 34932 ft | 436 kts | 162° |
| 2026-05-05 19:33 | 49.73880 | 0.10631 | 34932 ft | 435 kts | 162° |
| 2026-05-05 19:34 | 49.68068 | 0.13273 | 34924 ft | 435 kts | 162° |
| 2026-05-05 19:35 | 49.59356 | 0.17240 | 34914 ft | 435 kts | 162° |
| 2026-05-05 19:35 | 49.53546 | 0.19872 | 34917 ft | 435 kts | 162° |
| 2026-05-05 19:36 | 49.47720 | 0.22501 | 34912 ft | 436 kts | 162° |
| 2026-05-05 19:36 | 49.41894 | 0.25127 | 34878 ft | 437 kts | 162° |
| 2026-05-05 19:37 | 49.36058 | 0.27750 | 34882 ft | 437 kts | 162° |
| 2026-05-05 19:37 | 49.30247 | 0.30347 | 34888 ft | 438 kts | 162° |
| 2026-05-05 19:38 | 49.24392 | 0.32971 | 34891 ft | 438 kts | 162° |
| 2026-05-05 19:38 | 49.18529 | 0.35589 | 34890 ft | 439 kts | 162° |
| 2026-05-05 19:39 | 49.12663 | 0.38198 | 34892 ft | 439 kts | 162° |
| 2026-05-05 19:39 | 49.06800 | 0.40799 | 34904 ft | 439 kts | 162° |
| 2026-05-05 19:40 | 49.00932 | 0.43386 | 34902 ft | 439 kts | 162° |
| 2026-05-05 19:40 | 48.96056 | 0.45543 | 34899 ft | 439 kts | 162° |
| 2026-05-05 19:41 | 48.90184 | 0.48136 | 34901 ft | 439 kts | 162° |
| 2026-05-05 19:41 | 48.84312 | 0.50725 | 34902 ft | 439 kts | 162° |
| 2026-05-05 19:42 | 48.78439 | 0.53296 | 34899 ft | 440 kts | 163° |
| 2026-05-05 19:42 | 48.72528 | 0.55697 | 34900 ft | 440 kts | 164° |
| 2026-05-05 19:43 | 48.66592 | 0.57957 | 34893 ft | 440 kts | 165° |
| 2026-05-05 19:43 | 48.60662 | 0.60223 | 34878 ft | 440 kts | 164° |
| 2026-05-05 19:44 | 48.54732 | 0.62525 | 34882 ft | 440 kts | 164° |
| 2026-05-05 19:44 | 48.48801 | 0.64864 | 34884 ft | 440 kts | 163° |
| 2026-05-05 19:45 | 48.42885 | 0.67292 | 34881 ft | 440 kts | 163° |
| 2026-05-05 19:45 | 48.36964 | 0.69734 | 34870 ft | 441 kts | 163° |
| 2026-05-05 19:46 | 48.31035 | 0.72141 | 34871 ft | 441 kts | 164° |
| 2026-05-05 19:46 | 48.25104 | 0.74526 | 34864 ft | 441 kts | 164° |
| 2026-05-05 19:47 | 48.19165 | 0.76881 | 34873 ft | 441 kts | 164° |
| 2026-05-05 19:47 | 48.13213 | 0.79216 | 34877 ft | 442 kts | 164° |
| 2026-05-05 19:48 | 48.07263 | 0.81536 | 34868 ft | 442 kts | 164° |
| 2026-05-05 19:48 | 48.01315 | 0.83865 | 34873 ft | 442 kts | 164° |
| 2026-05-05 19:49 | 47.95369 | 0.86199 | 34860 ft | 442 kts | 165° |
| 2026-05-05 19:49 | 47.89428 | 0.88512 | 34870 ft | 441 kts | 165° |
| 2026-05-05 19:50 | 47.83515 | 0.90800 | 34864 ft | 441 kts | 165° |
| 2026-05-05 19:50 | 47.77566 | 0.93101 | 34871 ft | 442 kts | 165° |
| 2026-05-05 19:51 | 47.71605 | 0.95407 | 34862 ft | 443 kts | 165° |
| 2026-05-05 19:51 | 47.65628 | 0.97717 | 34865 ft | 444 kts | 165° |
| 2026-05-05 19:52 | 47.59638 | 1.00031 | 34872 ft | 445 kts | 165° |
| 2026-05-05 19:52 | 47.53634 | 1.02340 | 34863 ft | 446 kts | 166° |
| 2026-05-05 19:53 | 47.47614 | 1.04638 | 34867 ft | 446 kts | 166° |
| 2026-05-05 19:53 | 47.41523 | 1.06351 | 34867 ft | 446 kts | 177° |
| 2026-05-05 19:54 | 47.35306 | 1.06274 | 34881 ft | 446 kts | 181° |
| 2026-05-05 19:54 | 47.29098 | 1.06126 | 34891 ft | 446 kts | 181° |
| 2026-05-05 19:55 | 47.22934 | 1.05978 | 34895 ft | 445 kts | 181° |
| 2026-05-05 19:55 | 47.16740 | 1.05833 | 34897 ft | 445 kts | 181° |
| 2026-05-05 19:56 | 47.10557 | 1.05680 | 34898 ft | 444 kts | 181° |
| 2026-05-05 19:56 | 47.04380 | 1.05534 | 34895 ft | 444 kts | 181° |
| 2026-05-05 19:57 | 46.98207 | 1.05363 | 34898 ft | 444 kts | 181° |
| 2026-05-05 19:57 | 46.92035 | 1.05076 | 34893 ft | 443 kts | 182° |
| 2026-05-05 19:58 | 46.85866 | 1.04781 | 34895 ft | 443 kts | 182° |
| 2026-05-05 19:58 | 46.79694 | 1.04512 | 34893 ft | 443 kts | 182° |
| 2026-05-05 19:59 | 46.73528 | 1.04255 | 34889 ft | 443 kts | 182° |
| 2026-05-05 19:59 | 46.67365 | 1.04004 | 34892 ft | 443 kts | 182° |
| 2026-05-05 20:00 | 46.61192 | 1.03740 | 34894 ft | 443 kts | 182° |
| 2026-05-05 20:00 | 46.55023 | 1.03475 | 34904 ft | 443 kts | 182° |
| 2026-05-05 20:01 | 46.48891 | 1.04234 | 34905 ft | 444 kts | 167° |
| 2026-05-05 20:01 | 46.42865 | 1.06263 | 34902 ft | 444 kts | 168° |
| 2026-05-05 20:02 | 46.36839 | 1.08269 | 34905 ft | 444 kts | 168° |
| 2026-05-05 20:02 | 46.30819 | 1.10279 | 34919 ft | 444 kts | 168° |
| 2026-05-05 20:03 | 46.24797 | 1.12289 | 34918 ft | 444 kts | 168° |
| 2026-05-05 20:03 | 46.18770 | 1.14284 | 34925 ft | 444 kts | 168° |
| 2026-05-05 20:04 | 46.12789 | 1.16255 | 34925 ft | 444 kts | 168° |
| 2026-05-05 20:04 | 46.06770 | 1.18248 | 34934 ft | 444 kts | 168° |
| 2026-05-05 20:05 | 46.00750 | 1.20240 | 34930 ft | 443 kts | 168° |
| 2026-05-05 20:05 | 45.94746 | 1.22215 | 34928 ft | 443 kts | 168° |
| 2026-05-05 20:06 | 45.88744 | 1.24177 | 34926 ft | 443 kts | 168° |
| 2026-05-05 20:06 | 45.82735 | 1.26137 | 34930 ft | 443 kts | 168° |
| 2026-05-05 20:07 | 45.76716 | 1.28105 | 34958 ft | 443 kts | 168° |
| 2026-05-05 20:07 | 45.70707 | 1.30076 | 34949 ft | 443 kts | 168° |
| 2026-05-05 20:08 | 45.64692 | 1.32027 | 34938 ft | 443 kts | 168° |
| 2026-05-05 20:08 | 45.58674 | 1.33977 | 34951 ft | 443 kts | 168° |
| 2026-05-05 20:09 | 45.52657 | 1.35932 | 34951 ft | 443 kts | 169° |
| 2026-05-05 20:09 | 45.46682 | 1.37864 | 34951 ft | 443 kts | 169° |
| 2026-05-05 20:10 | 45.40672 | 1.39805 | 34944 ft | 442 kts | 169° |
| 2026-05-05 20:10 | 45.34661 | 1.41738 | 34943 ft | 442 kts | 169° |
| 2026-05-05 20:11 | 45.28663 | 1.43650 | 34950 ft | 442 kts | 169° |
| 2026-05-05 20:11 | 45.22665 | 1.45567 | 34943 ft | 442 kts | 169° |
| 2026-05-05 20:12 | 45.16656 | 1.47483 | 34948 ft | 442 kts | 169° |
| 2026-05-05 20:12 | 45.10655 | 1.49398 | 34948 ft | 442 kts | 169° |
| 2026-05-05 20:13 | 45.04663 | 1.51316 | 34950 ft | 442 kts | 169° |
| 2026-05-05 20:13 | 44.98658 | 1.53221 | 34936 ft | 442 kts | 169° |
| 2026-05-05 20:14 | 44.92656 | 1.55126 | 34952 ft | 442 kts | 170° |
| 2026-05-05 20:14 | 44.86661 | 1.57021 | 34957 ft | 441 kts | 170° |
| 2026-05-05 20:15 | 44.80666 | 1.58916 | 34963 ft | 441 kts | 170° |
| 2026-05-05 20:15 | 44.74675 | 1.60799 | 34965 ft | 440 kts | 170° |
| 2026-05-05 20:16 | 44.68700 | 1.62671 | 34966 ft | 440 kts | 170° |
| 2026-05-05 20:16 | 44.62758 | 1.64536 | 34965 ft | 440 kts | 170° |
| 2026-05-05 20:17 | 44.56790 | 1.66410 | 34959 ft | 440 kts | 170° |
| 2026-05-05 20:17 | 44.50820 | 1.68274 | 34964 ft | 439 kts | 170° |
| 2026-05-05 20:18 | 44.44845 | 1.70132 | 34968 ft | 439 kts | 170° |
| 2026-05-05 20:18 | 44.38871 | 1.71984 | 34959 ft | 439 kts | 171° |
| 2026-05-05 20:19 | 44.32905 | 1.73835 | 34962 ft | 439 kts | 171° |
| 2026-05-05 20:19 | 44.26921 | 1.75601 | 34968 ft | 438 kts | 173° |
| 2026-05-05 20:20 | 44.21932 | 1.76737 | 34967 ft | 437 kts | 175° |
| 2026-05-05 20:20 | 44.15917 | 1.77946 | 34969 ft | 437 kts | 175° |
| 2026-05-05 20:21 | 44.09905 | 1.79198 | 34974 ft | 437 kts | 174° |
| 2026-05-05 20:21 | 44.03898 | 1.80524 | 34978 ft | 437 kts | 174° |
| 2026-05-05 20:22 | 43.97896 | 1.81859 | 34966 ft | 437 kts | 174° |
| 2026-05-05 20:22 | 43.91923 | 1.82968 | 34979 ft | 435 kts | 178° |
| 2026-05-05 20:23 | 43.85856 | 1.83521 | 34989 ft | 433 kts | 180° |
| 2026-05-05 20:23 | 43.79867 | 1.83938 | 34977 ft | 433 kts | 180° |
| 2026-05-05 20:24 | 43.73847 | 1.84467 | 34984 ft | 433 kts | 180° |
| 2026-05-05 20:24 | 43.67834 | 1.85073 | 34987 ft | 433 kts | 179° |
| 2026-05-05 20:25 | 43.61816 | 1.85682 | 34992 ft | 433 kts | 180° |
| 2026-05-05 20:25 | 43.55804 | 1.86265 | 34981 ft | 433 kts | 180° |
| 2026-05-05 20:26 | 43.49784 | 1.86834 | 34990 ft | 434 kts | 180° |
| 2026-05-05 20:26 | 43.43760 | 1.87411 | 34990 ft | 434 kts | 180° |
| 2026-05-05 20:27 | 43.37742 | 1.87983 | 34975 ft | 434 kts | 180° |
| 2026-05-05 20:27 | 43.31720 | 1.88559 | 34982 ft | 434 kts | 180° |
| 2026-05-05 20:28 | 43.25692 | 1.89138 | 34988 ft | 434 kts | 180° |
| 2026-05-05 20:28 | 43.19660 | 1.89714 | 34979 ft | 434 kts | 181° |
| 2026-05-05 20:29 | 43.13632 | 1.90281 | 34984 ft | 434 kts | 180° |
| 2026-05-05 20:29 | 43.07596 | 1.90853 | 34985 ft | 434 kts | 180° |
| 2026-05-05 20:30 | 43.01573 | 1.91422 | 34980 ft | 434 kts | 181° |
| 2026-05-05 20:30 | 42.95554 | 1.92001 | 34988 ft | 433 kts | 181° |
| 2026-05-05 20:31 | 42.89550 | 1.92578 | 34998 ft | 432 kts | 181° |
| 2026-05-05 20:31 | 42.83558 | 1.93151 | 34999 ft | 431 kts | 181° |
| 2026-05-05 20:32 | 42.77573 | 1.93706 | 35002 ft | 431 kts | 181° |
| 2026-05-05 20:32 | 42.71591 | 1.94260 | 34999 ft | 431 kts | 181° |
| 2026-05-05 20:33 | 42.65612 | 1.94887 | 34986 ft | 432 kts | 179° |
| 2026-05-05 20:33 | 42.59679 | 1.96009 | 34974 ft | 434 kts | 176° |
| 2026-05-05 20:34 | 42.53713 | 1.97368 | 34973 ft | 435 kts | 176° |
| 2026-05-05 20:34 | 42.47743 | 1.98652 | 34970 ft | 434 kts | 177° |
| 2026-05-05 20:35 | 42.41774 | 1.99846 | 34964 ft | 433 kts | 177° |
| 2026-05-05 20:35 | 42.35807 | 2.00991 | 34940 ft | 432 kts | 179° |
| 2026-05-05 20:36 | 42.29845 | 2.01692 | 34944 ft | 429 kts | 182° |
| 2026-05-05 20:36 | 42.23887 | 2.02119 | 34941 ft | 429 kts | 183° |
| 2026-05-05 20:37 | 42.17931 | 2.02599 | 34918 ft | 429 kts | 182° |
| 2026-05-05 20:37 | 42.11974 | 2.03165 | 34935 ft | 429 kts | 182° |
| 2026-05-05 20:38 | 42.06019 | 2.03746 | 34941 ft | 429 kts | 182° |
| 2026-05-05 20:38 | 42.00066 | 2.04310 | 34941 ft | 429 kts | 182° |
| 2026-05-05 20:39 | 41.94115 | 2.04872 | 34929 ft | 428 kts | 184° |
| 2026-05-05 20:39 | 41.88193 | 2.05437 | 34944 ft | 426 kts | 184° |
| 2026-05-05 20:40 | 41.82317 | 2.05984 | 34948 ft | 425 kts | 184° |
| 2026-05-05 20:40 | 41.76422 | 2.06527 | 34952 ft | 424 kts | 184° |
| 2026-05-05 20:41 | 41.70538 | 2.07072 | 34936 ft | 423 kts | 184° |
| 2026-05-05 20:41 | 41.64666 | 2.07624 | 34950 ft | 422 kts | 184° |
| 2026-05-05 20:42 | 41.58812 | 2.08181 | 34954 ft | 421 kts | 184° |
| 2026-05-05 20:42 | 41.52969 | 2.08722 | 34929 ft | 421 kts | 185° |
| 2026-05-05 20:43 | 41.47125 | 2.09259 | 34931 ft | 420 kts | 185° |
| 2026-05-05 20:43 | 41.41289 | 2.09798 | 34938 ft | 420 kts | 184° |
| 2026-05-05 20:44 | 41.35448 | 2.10342 | 34937 ft | 420 kts | 185° |
| 2026-05-05 20:44 | 41.29654 | 2.10891 | 34927 ft | 422 kts | 183° |
| 2026-05-05 20:45 | 41.20840 | 2.12318 | 34935 ft | 426 kts | 180° |
| 2026-05-05 20:45 | 41.14968 | 2.13411 | 34933 ft | 426 kts | 181° |
| 2026-05-05 20:46 | 41.09095 | 2.14429 | 34907 ft | 425 kts | 181° |
| 2026-05-05 20:46 | 41.03234 | 2.15391 | 34914 ft | 424 kts | 181° |
| 2026-05-05 20:47 | 40.97371 | 2.16354 | 34919 ft | 425 kts | 181° |
| 2026-05-05 20:47 | 40.91513 | 2.17327 | 34921 ft | 424 kts | 181° |
| 2026-05-05 20:48 | 40.85651 | 2.18299 | 34902 ft | 425 kts | 182° |
| 2026-05-05 20:48 | 40.79786 | 2.19282 | 34910 ft | 425 kts | 182° |
| 2026-05-05 20:49 | 40.73920 | 2.20251 | 34918 ft | 424 kts | 182° |
| 2026-05-05 20:49 | 40.68095 | 2.21211 | 34923 ft | 424 kts | 182° |
| 2026-05-05 20:50 | 40.62228 | 2.22180 | 34929 ft | 424 kts | 182° |
| 2026-05-05 20:50 | 40.56368 | 2.23155 | 34929 ft | 424 kts | 182° |
| 2026-05-05 20:51 | 40.50505 | 2.24115 | 34929 ft | 424 kts | 182° |
| 2026-05-05 20:51 | 40.44642 | 2.25071 | 34908 ft | 424 kts | 182° |
| 2026-05-05 20:52 | 40.38809 | 2.26134 | 34916 ft | 428 kts | 180° |
| 2026-05-05 20:52 | 40.32935 | 2.27659 | 34925 ft | 431 kts | 177° |
| 2026-05-05 20:53 | 40.27063 | 2.29311 | 34905 ft | 431 kts | 178° |
| 2026-05-05 20:53 | 40.21190 | 2.30882 | 34918 ft | 429 kts | 178° |
| 2026-05-05 20:54 | 40.15315 | 2.32389 | 34949 ft | 430 kts | 178° |
| 2026-05-05 20:54 | 40.09448 | 2.33873 | 34957 ft | 429 kts | 178° |
| 2026-05-05 20:55 | 40.03629 | 2.35361 | 34958 ft | 429 kts | 178° |
| 2026-05-05 20:55 | 39.97776 | 2.36869 | 34936 ft | 428 kts | 178° |
| 2026-05-05 20:56 | 39.91932 | 2.38363 | 34938 ft | 428 kts | 178° |
| 2026-05-05 20:56 | 39.86087 | 2.39860 | 34946 ft | 428 kts | 178° |
| 2026-05-05 20:57 | 39.83165 | 2.40606 | 34807 ft | 428 kts | 178° |
| 2026-05-05 20:57 | 39.80247 | 2.41352 | 34575 ft | 428 kts | 178° |
| 2026-05-05 20:57 | 39.77323 | 2.42069 | 34296 ft | 424 kts | 181° |
| 2026-05-05 20:57 | 39.74424 | 2.42365 | 34060 ft | 413 kts | 188° |
| 2026-05-05 20:58 | 39.71591 | 2.42139 | 33802 ft | 405 kts | 194° |
| 2026-05-05 20:58 | 39.68793 | 2.41699 | 33204 ft | 407 kts | 194° |
| 2026-05-05 20:58 | 39.65973 | 2.41259 | 32274 ft | 410 kts | 194° |
| 2026-05-05 20:58 | 39.63126 | 2.40820 | 31321 ft | 414 kts | 194° |
| 2026-05-05 20:59 | 39.60282 | 2.40245 | 30390 ft | 412 kts | 201° |
| 2026-05-05 20:59 | 39.57585 | 2.39074 | 29307 ft | 408 kts | 210° |
| 2026-05-05 20:59 | 39.55132 | 2.37284 | 28187 ft | 404 kts | 219° |
| 2026-05-05 20:59 | 39.52990 | 2.34949 | 27207 ft | 404 kts | 228° |
| 2026-05-05 21:00 | 39.51194 | 2.32147 | 26259 ft | 405 kts | 237° |
| 2026-05-05 21:00 | 39.49650 | 2.29092 | 25337 ft | 404 kts | 238° |
| 2026-05-05 21:00 | 39.48115 | 2.26054 | 24480 ft | 403 kts | 238° |
| 2026-05-05 21:00 | 39.46576 | 2.23026 | 23621 ft | 402 kts | 238° |
| 2026-05-05 21:01 | 39.45030 | 2.20001 | 22627 ft | 402 kts | 238° |
| 2026-05-05 21:01 | 39.43508 | 2.17024 | 21665 ft | 403 kts | 238° |
| 2026-05-05 21:01 | 39.41964 | 2.14002 | 20718 ft | 403 kts | 238° |
| 2026-05-05 21:01 | 39.40422 | 2.10980 | 19802 ft | 402 kts | 237° |
| 2026-05-05 21:02 | 39.38881 | 2.07958 | 18915 ft | 402 kts | 237° |
| 2026-05-05 21:02 | 39.37345 | 2.04949 | 18011 ft | 401 kts | 237° |
| 2026-05-05 21:02 | 39.35807 | 2.01941 | 17042 ft | 400 kts | 237° |
| 2026-05-05 21:02 | 39.34281 | 1.98963 | 16295 ft | 396 kts | 237° |
| 2026-05-05 21:03 | 39.32766 | 1.96010 | 15494 ft | 392 kts | 237° |
| 2026-05-05 21:03 | 39.31263 | 1.93080 | 14711 ft | 390 kts | 237° |
| 2026-05-05 21:03 | 39.29769 | 1.90169 | 13969 ft | 388 kts | 237° |
| 2026-05-05 21:03 | 39.28285 | 1.87275 | 13120 ft | 386 kts | 237° |
| 2026-05-05 21:04 | 39.26805 | 1.84389 | 12287 ft | 384 kts | 237° |
| 2026-05-05 21:04 | 39.25336 | 1.81528 | 11487 ft | 382 kts | 237° |
| 2026-05-05 21:04 | 39.24346 | 1.79602 | 10931 ft | 380 kts | 237° |
| 2026-05-05 21:04 | 39.22417 | 1.75854 | 9884 ft | 378 kts | 237° |
| 2026-05-05 21:05 | 39.21434 | 1.73950 | 9305 ft | 377 kts | 237° |
| 2026-05-05 21:05 | 39.20055 | 1.71141 | 8448 ft | 375 kts | 240° |
| 2026-05-05 21:05 | 39.18767 | 1.68215 | 7597 ft | 374 kts | 242° |
| 2026-05-05 21:05 | 39.17550 | 1.65256 | 6755 ft | 373 kts | 243° |
| 2026-05-05 21:06 | 39.16370 | 1.62289 | 5926 ft | 371 kts | 243° |
| 2026-05-05 21:06 | 39.15036 | 1.59470 | 5151 ft | 367 kts | 229° |
| 2026-05-05 21:06 | 39.12991 | 1.57569 | 4436 ft | 361 kts | 204° |
| 2026-05-05 21:06 | 39.10592 | 1.57006 | 3542 ft | 346 kts | 176° |
| 2026-05-05 21:07 | 39.08412 | 1.57962 | 3151 ft | 322 kts | 147° |
| 2026-05-05 21:07 | 39.07020 | 1.60048 | 3002 ft | 298 kts | 116° |
| 2026-05-05 21:07 | 39.06741 | 1.62540 | 2976 ft | 272 kts | 81° |
| 2026-05-05 21:07 | 39.07503 | 1.64606 | 2983 ft | 246 kts | 52° |
| 2026-05-05 21:08 | 39.08431 | 1.66378 | 2988 ft | 232 kts | 70° |
| 2026-05-05 21:08 | 39.08674 | 1.68333 | 2986 ft | 215 kts | 97° |
| 2026-05-05 21:08 | 39.08313 | 1.70152 | 2990 ft | 206 kts | 120° |
| 2026-05-05 21:08 | 39.07521 | 1.71600 | 3002 ft | 193 kts | 140° |
| 2026-05-05 21:09 | 39.06484 | 1.72524 | 2994 ft | 172 kts | 159° |
| 2026-05-05 21:09 | 39.05434 | 1.73105 | 2982 ft | 157 kts | 164° |
| 2026-05-05 21:09 | 39.04402 | 1.73375 | 2980 ft | 148 kts | 181° |
| 2026-05-05 21:09 | 39.03392 | 1.73238 | 2986 ft | 145 kts | 197° |
| 2026-05-05 21:10 | 39.02474 | 1.72733 | 2990 ft | 144 kts | 213° |
| 2026-05-05 21:10 | 39.01745 | 1.71862 | 2995 ft | 143 kts | 232° |
| 2026-05-05 21:10 | 39.01179 | 1.70802 | 2991 ft | 144 kts | 236° |
| 2026-05-05 21:10 | 39.00659 | 1.69686 | 3002 ft | 150 kts | 239° |
| 2026-05-05 21:11 | 39.00140 | 1.68494 | 2996 ft | 154 kts | 240° |
| 2026-05-05 21:11 | 38.99633 | 1.67285 | 2994 ft | 153 kts | 240° |
| 2026-05-05 21:11 | 38.99131 | 1.66074 | 2991 ft | 153 kts | 240° |
| 2026-05-05 21:11 | 38.98633 | 1.64865 | 2989 ft | 153 kts | 240° |
| 2026-05-05 21:12 | 38.98136 | 1.63655 | 3005 ft | 154 kts | 240° |
| 2026-05-05 21:12 | 38.97638 | 1.62442 | 2992 ft | 154 kts | 240° |
| 2026-05-05 21:12 | 38.97139 | 1.61228 | 2986 ft | 153 kts | 240° |
| 2026-05-05 21:12 | 38.96642 | 1.60017 | 2984 ft | 153 kts | 240° |
| 2026-05-05 21:13 | 38.96143 | 1.58802 | 2985 ft | 154 kts | 240° |
| 2026-05-05 21:13 | 38.95644 | 1.57586 | 2984 ft | 152 kts | 240° |
| 2026-05-05 21:13 | 38.95157 | 1.56402 | 2948 ft | 149 kts | 240° |
| 2026-05-05 21:13 | 38.94676 | 1.55232 | 2812 ft | 147 kts | 240° |
| 2026-05-05 21:14 | 38.94199 | 1.54074 | 2637 ft | 146 kts | 240° |
| 2026-05-05 21:14 | 38.93727 | 1.52926 | 2453 ft | 143 kts | 240° |
| 2026-05-05 21:14 | 38.93269 | 1.51815 | 2277 ft | 138 kts | 239° |
| 2026-05-05 21:14 | 38.92823 | 1.50731 | 2093 ft | 136 kts | 240° |
| 2026-05-05 21:15 | 38.92387 | 1.49672 | 1915 ft | 135 kts | 239° |
| 2026-05-05 21:15 | 38.91949 | 1.48610 | 1735 ft | 134 kts | 239° |
| 2026-05-05 21:15 | 38.91515 | 1.47557 | 1558 ft | 133 kts | 240° |
| 2026-05-05 21:15 | 38.91080 | 1.46502 | 1373 ft | 133 kts | 239° |
| 2026-05-05 21:16 | 38.90643 | 1.45446 | 1192 ft | 135 kts | 240° |
| 2026-05-05 21:16 | 38.90199 | 1.44368 | 1013 ft | 136 kts | 240° |
| 2026-05-05 21:16 | 38.89751 | 1.43283 | 831 ft | 138 kts | 241° |
| 2026-05-05 21:16 | 38.89303 | 1.42200 | 662 ft | 138 kts | 242° |
| 2026-05-05 21:17 | 38.88851 | 1.41098 | 424 ft | 143 kts | 244° |
| 2026-05-05 21:17 | 38.88392 | 1.39969 | 313 ft | 141 kts | 241° |
| 2026-05-05 21:17 | 38.87941 | 1.38893 | 121 ft | 135 kts | 242° |
| 2026-05-05 21:17 | 38.87527 | 1.37890 | 33 ft | 115 kts | 242° |
| 2026-05-05 21:18 | 38.87226 | 1.37168 | 30 ft | 71 kts | 242° |
| 2026-05-05 21:18 | 38.87102 | 1.36794 | 30 ft | 29 kts | 262° |
| 2026-05-05 21:18 | 38.87104 | 1.36603 | 30 ft | 16 kts | 274° |
| 2026-05-05 21:18 | 38.87163 | 1.36579 | 33 ft | 9 kts | 44° |
| 2026-05-05 21:19 | 38.87194 | 1.36640 | 35 ft | 8 kts | 61° |
| 2026-05-05 21:19 | 38.87233 | 1.36735 | 36 ft | 13 kts | 63° |
| 2026-05-05 21:19 | 38.87272 | 1.36830 | 37 ft | 11 kts | 62° |
| 2026-05-05 21:19 | 38.87333 | 1.36837 | 39 ft | 9 kts | 336° |
| 2026-05-05 21:20 | 38.87378 | 1.36809 | 39 ft | 5 kts | 330° |
| 2026-05-05 21:20 | 38.87425 | 1.36789 | 43 ft | 8 kts | 20° |
| 2026-05-05 21:20 | 38.87461 | 1.36849 | 44 ft | 11 kts | 59° |
| 2026-05-05 21:20 | 38.87496 | 1.36931 | 46 ft | 8 kts | 61° |
| 2026-05-05 21:21 | 38.87517 | 1.36987 | 46 ft | 6 kts | 66° |
| 2026-05-05 21:21 | 38.87541 | 1.37028 | 47 ft | 5 kts | 24° |
| 2026-05-05 21:21 | 38.87565 | 1.37019 | 48 ft | 3 kts | 336° |
| 2026-05-05 21:21 | 38.87589 | 1.37001 | 49 ft | 2 kts | 330° |
| 2026-05-05 21:22 | 38.87598 | 1.36994 | 49 ft | 0 kts | 330° |